createdAt,value
2019-02-11T00:01:21.401Z,0.70
2019-02-11T00:03:50.765Z,0.80
2019-02-11T00:06:20.135Z,0.60
2019-02-11T00:08:49.580Z,0.80
2019-02-11T00:11:18.975Z,0.90
2019-02-11T00:13:48.388Z,1.10
2019-02-11T00:16:17.810Z,0.70
2019-02-11T00:18:47.113Z,0.90
2019-02-11T00:21:16.411Z,0.90
2019-02-11T00:23:46.243Z,1.00
2019-02-11T00:26:15.801Z,0.90
2019-02-11T00:28:45.115Z,0.90
2019-02-11T00:31:14.875Z,1.10
2019-02-11T00:33:44.355Z,1.70
2019-02-11T00:36:13.706Z,1.17
2019-02-11T00:38:43.078Z,1.27
2019-02-11T00:41:12.388Z,1.07
2019-02-11T00:43:41.788Z,1.20
2019-02-11T00:46:11.128Z,1.40
2019-02-11T00:48:40.416Z,1.10
2019-02-11T00:51:09.696Z,1.13
2019-02-11T00:53:38.984Z,1.10
2019-02-11T00:56:08.340Z,1.60
2019-02-11T00:58:37.735Z,1.40
2019-02-11T01:01:07.035Z,3.23
2019-02-11T01:03:36.390Z,1.30
2019-02-11T01:06:05.694Z,1.60
2019-02-11T01:08:35.327Z,1.70
2019-02-11T01:11:04.673Z,1.60
2019-02-11T01:13:34.114Z,1.17
2019-02-11T01:16:03.414Z,2.80
2019-02-11T01:18:32.690Z,2.40
2019-02-11T01:21:01.961Z,1.40
2019-02-11T01:23:31.371Z,1.60
2019-02-11T01:26:01.360Z,1.80
2019-02-11T01:28:30.647Z,1.70
2019-02-11T01:30:59.984Z,1.60
2019-02-11T01:33:29.287Z,1.60
2019-02-11T01:35:59.548Z,1.67
2019-02-11T01:38:29.299Z,2.03
2019-02-11T01:40:58.696Z,2.03
2019-02-11T01:43:35.804Z,1.90
2019-02-11T01:45:57.525Z,2.10
2019-02-11T01:48:26.897Z,2.80
2019-02-11T01:50:56.238Z,3.93
2019-02-11T01:53:25.508Z,1.20
2019-02-11T01:55:55.401Z,1.37
2019-02-11T01:58:24.772Z,1.60
2019-02-11T02:00:55.083Z,1.63
2019-02-11T02:03:24.433Z,2.10
2019-02-11T02:05:53.772Z,1.83
2019-02-11T02:08:23.087Z,1.77
2019-02-11T02:10:53.323Z,1.93
2019-02-11T02:13:23.339Z,1.97
2019-02-11T02:15:52.721Z,1.73
2019-02-11T02:18:22.091Z,1.83
2019-02-11T02:20:51.374Z,2.23
2019-02-11T02:23:20.733Z,1.97
2019-02-11T02:25:50.104Z,1.77
2019-02-11T02:28:19.461Z,1.80
2019-02-11T02:30:48.744Z,1.53
2019-02-11T02:33:18.177Z,1.80
2019-02-11T02:35:47.612Z,1.40
2019-02-11T02:38:16.952Z,1.80
2019-02-11T02:40:46.328Z,2.57
2019-02-11T02:43:15.618Z,1.40
2019-02-11T02:45:45.037Z,1.70
2019-02-11T02:48:14.444Z,1.43
2019-02-11T02:50:43.743Z,1.43
2019-02-11T02:53:13.076Z,1.10
2019-02-11T02:55:42.669Z,2.63
2019-02-11T02:58:11.995Z,1.53
2019-02-11T03:00:41.351Z,1.53
2019-02-11T03:03:10.655Z,1.33
2019-02-11T03:05:40.067Z,1.57
2019-02-11T03:08:09.420Z,1.30
2019-02-11T03:10:38.728Z,1.33
2019-02-11T03:13:09.927Z,1.60
2019-02-11T03:15:37.399Z,1.80
2019-02-11T03:18:06.875Z,1.60
2019-02-11T03:20:36.225Z,1.60
2019-02-11T03:23:05.570Z,1.50
2019-02-11T03:25:34.928Z,1.40
2019-02-11T03:28:04.250Z,1.50
2019-02-11T03:30:33.582Z,1.80
2019-02-11T03:33:02.976Z,1.47
2019-02-11T03:35:32.277Z,1.40
2019-02-11T03:38:01.941Z,1.40
2019-02-11T03:40:31.387Z,1.30
2019-02-11T03:43:00.692Z,1.83
2019-02-11T03:45:29.979Z,1.10
2019-02-11T03:47:59.323Z,1.37
2019-02-11T03:50:28.751Z,1.40
2019-02-11T03:52:58.942Z,2.23
2019-02-11T03:55:28.298Z,1.53
2019-02-11T03:57:57.703Z,1.13
2019-02-11T04:00:28.629Z,1.00
2019-02-11T04:02:58.122Z,1.13
2019-02-11T04:05:27.580Z,0.80
2019-02-11T04:07:56.945Z,0.83
2019-02-11T04:10:26.868Z,0.70
2019-02-11T04:12:56.790Z,0.83
2019-02-11T04:15:26.092Z,0.70
2019-02-11T04:17:55.470Z,0.80
2019-02-11T04:20:24.780Z,0.50
2019-02-11T04:22:54.155Z,0.50
2019-02-11T04:25:24.021Z,0.90
2019-02-11T04:27:53.415Z,1.23
2019-02-11T04:30:22.743Z,0.70
2019-02-11T04:32:52.089Z,0.90
2019-02-11T04:35:21.459Z,0.90
2019-02-11T04:37:50.823Z,0.97
2019-02-11T04:40:20.147Z,0.90
2019-02-11T04:42:49.528Z,1.33
2019-02-11T04:45:18.854Z,0.87
2019-02-11T04:47:48.299Z,1.50
2019-02-11T04:50:18.595Z,1.80
2019-02-11T04:52:47.957Z,1.03
2019-02-11T04:55:17.242Z,1.53
2019-02-11T04:57:47.152Z,1.27
2019-02-11T05:00:16.969Z,0.93
2019-02-11T05:02:46.390Z,1.57
2019-02-11T05:05:15.744Z,0.73
2019-02-11T05:07:45.197Z,1.77
2019-02-11T05:10:14.555Z,0.90
2019-02-11T05:12:43.891Z,0.93
2019-02-11T05:15:13.252Z,1.83
2019-02-11T05:17:42.605Z,1.60
2019-02-11T05:20:12.017Z,1.03
2019-02-11T05:22:42.009Z,1.07
2019-02-11T05:25:11.374Z,1.23
2019-02-11T05:27:40.784Z,1.63
2019-02-11T05:30:10.567Z,3.27
2019-02-11T05:32:39.877Z,1.20
2019-02-11T05:35:09.200Z,1.27
2019-02-11T05:37:38.695Z,1.20
2019-02-11T05:40:10.155Z,2.37
2019-02-11T05:42:39.572Z,1.47
2019-02-11T05:45:09.029Z,1.90
2019-02-11T05:47:38.555Z,1.80
2019-02-11T05:50:09.174Z,1.57
2019-02-11T05:52:38.583Z,2.57
2019-02-11T05:55:14.666Z,1.40
2019-02-11T05:57:44.081Z,1.40
2019-02-11T06:00:13.473Z,1.93
2019-02-11T06:02:42.890Z,2.30
2019-02-11T06:05:12.286Z,2.03
2019-02-11T06:07:41.636Z,2.45
2019-02-11T06:10:11.025Z,2.43
2019-02-11T06:12:40.311Z,1.67
2019-02-11T06:15:09.738Z,3.03
2019-02-11T06:17:39.087Z,1.60
2019-02-11T06:20:09.125Z,1.70
2019-02-11T06:22:38.436Z,2.33
2019-02-11T06:25:07.899Z,1.93
2019-02-11T06:27:37.303Z,5.80
2019-02-11T06:30:07.271Z,3.50
2019-02-11T06:32:36.607Z,3.17
2019-02-11T06:35:06.811Z,2.97
2019-02-11T06:37:36.086Z,7.27
2019-02-11T06:40:06.495Z,7.53
2019-02-11T06:42:35.875Z,5.30
2019-02-11T06:45:12.763Z,8.20
2019-02-11T06:47:34.993Z,5.93
2019-02-11T06:50:04.932Z,2.53
2019-02-11T06:52:34.317Z,3.10
2019-02-11T06:55:03.955Z,3.03
2019-02-11T06:57:33.203Z,5.70
2019-02-11T07:00:02.524Z,2.57
2019-02-11T07:02:31.795Z,2.30
2019-02-11T07:05:01.179Z,2.83
2019-02-11T07:07:30.726Z,3.23
2019-02-11T07:10:00.196Z,6.13
2019-02-11T07:12:29.365Z,2.93
2019-02-11T07:14:58.715Z,4.03
2019-02-11T07:17:28.123Z,3.43
2019-02-11T07:19:57.439Z,4.90
2019-02-11T07:22:26.797Z,4.47
2019-02-11T07:24:56.220Z,4.23
2019-02-11T07:27:25.765Z,3.27
2019-02-11T07:29:55.095Z,4.17
2019-02-11T07:32:24.536Z,4.40
2019-02-11T07:34:53.893Z,4.37
2019-02-11T07:37:23.258Z,4.97
2019-02-11T07:39:52.584Z,4.87
2019-02-11T07:42:26.329Z,5.53
2019-02-11T07:44:58.504Z,4.13
2019-02-11T07:47:27.763Z,4.03
2019-02-11T07:49:57.179Z,4.40
2019-02-11T07:52:27.107Z,6.30
2019-02-11T07:54:55.801Z,5.33
2019-02-11T07:57:25.124Z,5.10
2019-02-11T07:59:54.477Z,3.23
2019-02-11T08:02:23.860Z,5.63
2019-02-11T08:04:53.331Z,4.73
2019-02-11T08:07:22.651Z,3.57
2019-02-11T08:09:52.307Z,5.23
2019-02-11T08:12:21.864Z,11.50
2019-02-11T08:14:51.293Z,5.27
2019-02-11T08:17:20.891Z,7.50
2019-02-11T08:19:50.454Z,6.30
2019-02-11T08:22:19.788Z,3.73
2019-02-11T08:24:49.171Z,6.17
2019-02-11T08:27:18.572Z,7.50
2019-02-11T08:29:48.845Z,8.30
2019-02-11T08:32:18.247Z,7.13
2019-02-11T08:34:47.581Z,8.37
2019-02-11T08:37:16.935Z,6.83
2019-02-11T08:39:46.292Z,3.87
2019-02-11T08:42:15.668Z,8.93
2019-02-11T08:44:45.015Z,4.23
2019-02-11T08:47:14.367Z,5.50
2019-02-11T08:49:43.809Z,4.47
2019-02-11T08:52:13.822Z,5.00
2019-02-11T08:54:44.249Z,7.03
2019-02-11T08:57:14.148Z,4.87
2019-02-11T08:59:43.597Z,4.87
2019-02-11T09:02:13.032Z,11.17
2019-02-11T09:04:42.416Z,8.47
2019-02-11T09:07:12.249Z,6.27
2019-02-11T09:09:41.708Z,5.57
2019-02-11T09:12:11.141Z,8.57
2019-02-11T09:14:40.424Z,5.67
2019-02-11T09:17:10.574Z,4.40
2019-02-11T09:19:39.139Z,7.83
2019-02-11T09:22:09.345Z,4.90
2019-02-11T09:24:38.694Z,3.93
2019-02-11T09:27:08.194Z,4.57
2019-02-11T09:29:37.660Z,6.27
2019-02-11T09:32:06.988Z,6.60
2019-02-11T09:34:37.168Z,7.80
2019-02-11T09:37:07.152Z,7.53
2019-02-11T09:39:37.077Z,4.30
2019-02-11T09:42:06.397Z,8.27
2019-02-11T09:44:35.748Z,5.53
2019-02-11T09:47:05.190Z,5.83
2019-02-11T09:49:35.429Z,8.87
2019-02-11T09:52:06.111Z,5.00
2019-02-11T09:54:35.499Z,8.50
2019-02-11T09:57:04.975Z,7.13
2019-02-11T09:59:34.387Z,9.50
2019-02-11T10:02:03.897Z,7.10
2019-02-11T10:04:33.209Z,9.20
2019-02-11T10:07:02.532Z,5.70
2019-02-11T10:09:31.844Z,6.40
2019-02-11T10:12:02.910Z,6.90
2019-02-11T10:14:32.262Z,6.03
2019-02-11T10:17:01.828Z,5.10
2019-02-11T10:19:31.114Z,6.20
2019-02-11T10:22:00.452Z,5.23
2019-02-11T10:24:29.787Z,4.20
2019-02-11T10:26:59.193Z,6.00
2019-02-11T10:29:28.524Z,5.63
2019-02-11T10:31:57.840Z,5.70
2019-02-11T10:34:27.188Z,7.00
2019-02-11T10:36:56.549Z,11.47
2019-02-11T10:39:32.302Z,4.83
2019-02-11T10:42:01.568Z,4.93
2019-02-11T10:44:31.786Z,6.87
2019-02-11T10:47:01.254Z,3.30
2019-02-11T10:49:30.604Z,4.37
2019-02-11T10:52:00.073Z,5.57
2019-02-11T10:54:30.392Z,9.53
2019-02-11T10:56:59.743Z,3.50
2019-02-11T10:59:29.032Z,5.53
2019-02-11T11:01:58.996Z,7.93
2019-02-11T11:04:28.440Z,6.90
2019-02-11T11:06:57.819Z,6.07
2019-02-11T11:09:27.180Z,4.30
2019-02-11T11:11:56.605Z,3.53
2019-02-11T11:14:26.003Z,3.70
2019-02-11T11:16:55.395Z,3.77
2019-02-11T11:19:24.904Z,6.73
2019-02-11T11:21:54.320Z,7.50
2019-02-11T11:24:23.723Z,3.97
2019-02-11T11:26:53.127Z,7.37
2019-02-11T11:29:22.586Z,3.47
2019-02-11T11:31:52.036Z,4.93
2019-02-11T11:34:21.400Z,5.50
2019-02-11T11:36:51.039Z,3.57
2019-02-11T11:39:25.475Z,6.33
2019-02-11T11:41:54.044Z,6.87
2019-02-11T11:44:23.451Z,5.03
2019-02-11T11:46:52.756Z,7.03
2019-02-11T11:49:22.090Z,4.50
2019-02-11T11:51:52.484Z,6.80
2019-02-11T11:54:21.842Z,4.27
2019-02-11T11:56:51.260Z,4.70
2019-02-11T11:59:20.623Z,4.70
2019-02-11T12:01:50.753Z,4.90
2019-02-11T12:04:20.082Z,9.43
2019-02-11T12:06:51.700Z,5.97
2019-02-11T12:09:22.192Z,4.33
2019-02-11T12:11:51.570Z,3.03
2019-02-11T12:14:22.152Z,7.23
2019-02-11T12:16:57.339Z,4.33
2019-02-11T12:19:21.026Z,3.20
2019-02-11T12:21:50.398Z,7.23
2019-02-11T12:24:19.813Z,6.33
2019-02-11T12:26:49.088Z,4.70
2019-02-11T12:29:18.402Z,4.27
2019-02-11T12:31:47.715Z,4.83
2019-02-11T12:34:17.086Z,7.13
2019-02-11T12:36:46.425Z,10.57
2019-02-11T12:39:15.815Z,10.43
2019-02-11T12:41:45.313Z,6.70
2019-02-11T12:44:14.700Z,5.70
2019-02-11T12:46:44.076Z,5.60
2019-02-11T12:49:14.241Z,4.07
2019-02-11T12:51:43.654Z,3.23
2019-02-11T12:54:12.990Z,4.00
2019-02-11T12:56:42.363Z,4.77
2019-02-11T12:59:11.786Z,13.37
2019-02-11T13:01:41.149Z,3.77
2019-02-11T13:04:10.536Z,7.30
2019-02-11T13:06:39.978Z,6.73
2019-02-11T13:09:10.037Z,5.50
2019-02-11T13:11:39.436Z,4.97
2019-02-11T13:14:08.761Z,4.67
2019-02-11T13:16:38.055Z,6.90
2019-02-11T13:19:08.014Z,4.50
2019-02-11T13:21:37.449Z,4.80
2019-02-11T13:24:06.787Z,6.33
2019-02-11T13:26:36.125Z,5.67
2019-02-11T13:29:05.685Z,2.90
2019-02-11T13:31:35.244Z,3.00
2019-02-11T13:34:04.597Z,2.00
2019-02-11T13:36:33.943Z,1.90
2019-02-11T13:39:03.890Z,2.87
2019-02-11T13:41:33.325Z,4.03
2019-02-11T13:44:02.775Z,5.33
2019-02-11T13:46:32.136Z,4.17
2019-02-11T13:49:01.486Z,4.50
2019-02-11T13:51:31.040Z,2.53
2019-02-11T13:54:00.375Z,2.47
2019-02-11T13:56:29.925Z,2.67
2019-02-11T13:58:59.958Z,3.67
2019-02-11T14:01:29.317Z,1.90
2019-02-11T14:03:58.660Z,3.33
2019-02-11T14:06:28.054Z,3.17
2019-02-11T14:08:57.374Z,3.37
2019-02-11T14:11:26.800Z,6.73
2019-02-11T14:14:02.782Z,2.93
2019-02-11T14:16:25.684Z,1.80
2019-02-11T14:18:55.826Z,4.80
2019-02-11T14:21:25.492Z,4.40
2019-02-11T14:23:54.844Z,3.13
2019-02-11T14:26:24.456Z,2.23
2019-02-11T14:28:53.796Z,2.73
2019-02-11T14:31:23.174Z,3.23
2019-02-11T14:33:52.680Z,5.00
2019-02-11T14:36:22.031Z,5.77
2019-02-11T14:38:51.393Z,2.83
2019-02-11T14:41:20.797Z,3.47
2019-02-11T14:43:50.198Z,5.80
2019-02-11T14:46:19.599Z,4.60
2019-02-11T14:48:48.981Z,2.37
2019-02-11T14:51:18.311Z,4.07
2019-02-11T14:53:47.892Z,4.40
2019-02-11T14:56:18.656Z,3.50
2019-02-11T14:58:48.200Z,3.17
2019-02-11T15:01:17.581Z,8.73
2019-02-11T15:03:47.933Z,5.80
2019-02-11T15:06:16.332Z,2.43
2019-02-11T15:08:45.734Z,5.33
2019-02-11T15:11:15.126Z,7.07
2019-02-11T15:13:44.397Z,2.90
2019-02-11T15:16:13.736Z,5.23
2019-02-11T15:18:43.761Z,3.60
2019-02-11T15:21:13.784Z,1.87
2019-02-11T15:23:43.808Z,2.30
2019-02-11T15:26:13.954Z,3.40
2019-02-11T15:28:43.271Z,2.57
2019-02-11T15:31:13.484Z,2.97
2019-02-11T15:33:44.073Z,4.00
2019-02-11T15:36:12.192Z,3.73
2019-02-11T15:38:44.616Z,2.20
2019-02-11T15:41:13.905Z,3.67
2019-02-11T15:43:43.356Z,3.27
2019-02-11T15:46:12.756Z,3.10
2019-02-11T15:48:43.359Z,3.00
2019-02-11T15:51:11.772Z,1.77
2019-02-11T15:53:41.108Z,2.10
2019-02-11T15:56:10.629Z,2.73
2019-02-11T15:58:40.118Z,3.97
2019-02-11T16:01:09.600Z,1.57
2019-02-11T16:03:39.362Z,3.03
2019-02-11T16:06:10.666Z,3.17
2019-02-11T16:08:38.228Z,4.10
2019-02-11T16:11:08.567Z,3.50
2019-02-11T16:13:38.040Z,4.07
2019-02-11T16:16:07.336Z,2.60
2019-02-11T16:18:36.716Z,2.40
2019-02-11T16:21:06.618Z,2.07
2019-02-11T16:23:42.698Z,3.03
2019-02-11T16:26:12.079Z,3.07
2019-02-11T16:28:42.455Z,2.97
2019-02-11T16:31:11.812Z,6.00
2019-02-11T16:33:41.176Z,2.67
2019-02-11T16:36:10.771Z,3.40
2019-02-11T16:38:40.109Z,5.80
2019-02-11T16:41:09.542Z,3.50
2019-02-11T16:43:38.851Z,8.20
2019-02-11T16:46:08.784Z,3.30
2019-02-11T16:48:39.583Z,5.97
2019-02-11T16:51:09.864Z,3.37
2019-02-11T16:53:39.280Z,3.63
2019-02-11T16:56:09.395Z,6.00
2019-02-11T16:58:38.740Z,2.90
2019-02-11T17:01:10.346Z,5.63
2019-02-11T17:03:40.243Z,5.63
2019-02-11T17:06:09.713Z,7.47
2019-02-11T17:08:39.001Z,6.70
2019-02-11T17:11:08.525Z,4.27
2019-02-11T17:13:37.977Z,4.57
2019-02-11T17:16:14.022Z,4.37
2019-02-11T17:18:44.264Z,4.50
2019-02-11T17:21:13.612Z,5.67
2019-02-11T17:23:42.921Z,3.87
2019-02-11T17:26:12.361Z,7.20
2019-02-11T17:28:42.487Z,8.77
2019-02-11T17:31:14.079Z,4.53
2019-02-11T17:33:43.595Z,4.97
2019-02-11T17:36:12.921Z,5.83
2019-02-11T17:38:42.960Z,5.03
2019-02-11T17:41:12.232Z,7.57
2019-02-11T17:43:42.157Z,6.13
2019-02-11T17:46:11.463Z,8.67
2019-02-11T17:48:40.784Z,6.63
2019-02-11T17:51:10.715Z,5.43
2019-02-11T17:53:40.100Z,6.03
2019-02-11T17:56:09.358Z,4.07
2019-02-11T17:58:39.193Z,4.40
2019-02-11T18:01:08.545Z,6.63
2019-02-11T18:03:37.837Z,5.73
2019-02-11T18:06:07.718Z,6.30
2019-02-11T18:08:37.038Z,8.37
2019-02-11T18:11:06.364Z,6.43
2019-02-11T18:13:36.626Z,6.60
2019-02-11T18:16:06.082Z,6.65
2019-02-11T18:18:35.463Z,7.67
2019-02-11T18:21:04.853Z,5.40
2019-02-11T18:23:34.240Z,9.03
2019-02-11T18:26:03.633Z,7.70
2019-02-11T18:28:33.026Z,6.00
2019-02-11T18:31:02.432Z,10.77
2019-02-11T18:33:31.740Z,6.20
2019-02-11T18:36:01.372Z,6.13
2019-02-11T18:38:30.751Z,5.23
2019-02-11T18:41:00.014Z,5.83
2019-02-11T18:43:29.456Z,6.40
2019-02-11T18:45:58.895Z,8.27
2019-02-11T18:48:28.224Z,12.43
2019-02-11T18:50:57.514Z,9.67
2019-02-11T18:53:27.345Z,5.93
2019-02-11T18:55:56.624Z,6.33
2019-02-11T18:58:25.925Z,10.30
2019-02-11T19:00:55.280Z,9.53
2019-02-11T19:03:24.571Z,7.80
2019-02-11T19:05:53.943Z,9.07
2019-02-11T19:08:23.199Z,5.43
2019-02-11T19:10:53.091Z,9.67
2019-02-11T19:13:22.495Z,7.13
2019-02-11T19:15:51.939Z,12.50
2019-02-11T19:18:21.344Z,10.27
2019-02-11T19:20:50.703Z,7.93
2019-02-11T19:23:20.029Z,8.03
2019-02-11T19:25:49.524Z,9.70
2019-02-11T19:28:18.809Z,11.60
2019-02-11T19:30:48.893Z,6.20
2019-02-11T19:33:18.611Z,12.20
2019-02-11T19:35:48.077Z,12.67
2019-02-11T19:38:17.388Z,8.07
2019-02-11T19:40:46.928Z,8.20
2019-02-11T19:43:16.181Z,10.47
2019-02-11T19:45:45.539Z,9.30
2019-02-11T19:48:14.912Z,10.43
2019-02-11T19:50:44.267Z,7.57
2019-02-11T19:53:13.780Z,7.87
2019-02-11T19:55:43.092Z,9.07
2019-02-11T19:58:12.468Z,10.97
2019-02-11T20:00:41.773Z,17.90
2019-02-11T20:03:11.309Z,11.67
2019-02-11T20:05:40.735Z,12.50
2019-02-11T20:08:10.283Z,13.00
2019-02-11T20:10:39.787Z,15.90
2019-02-11T20:13:09.147Z,11.20
2019-02-11T20:15:39.348Z,14.60
2019-02-11T20:18:08.896Z,13.03
2019-02-11T20:20:38.327Z,9.60
2019-02-11T20:23:07.713Z,14.53
2019-02-11T20:25:37.058Z,12.47
2019-02-11T20:28:07.191Z,7.60
2019-02-11T20:30:36.589Z,8.07
2019-02-11T20:33:05.940Z,6.10
2019-02-11T20:35:35.215Z,13.53
2019-02-11T20:38:04.556Z,10.93
2019-02-11T20:40:33.845Z,9.63
2019-02-11T20:43:03.196Z,8.27
2019-02-11T20:45:32.584Z,10.20
2019-02-11T20:48:01.993Z,7.63
2019-02-11T20:50:31.414Z,10.33
2019-02-11T20:53:00.744Z,11.80
2019-02-11T20:55:30.107Z,9.23
2019-02-11T20:57:59.685Z,9.47
2019-02-11T21:00:29.817Z,9.70
2019-02-11T21:03:07.751Z,8.60
2019-02-11T21:05:28.556Z,7.53
2019-02-11T21:07:58.007Z,10.27
2019-02-11T21:10:27.352Z,12.10
2019-02-11T21:12:57.326Z,11.00
2019-02-11T21:15:27.676Z,10.70
2019-02-11T21:17:56.982Z,7.37
2019-02-11T21:20:30.748Z,9.43
2019-02-11T21:23:00.099Z,10.60
2019-02-11T21:25:29.640Z,10.67
2019-02-11T21:27:59.040Z,11.00
2019-02-11T21:30:28.293Z,7.80
2019-02-11T21:32:57.569Z,9.53
2019-02-11T21:35:26.910Z,16.70
2019-02-11T21:37:56.169Z,10.03
2019-02-11T21:40:25.437Z,9.30
2019-02-11T21:42:54.754Z,7.30
2019-02-11T21:45:24.103Z,10.23
2019-02-11T21:47:53.411Z,6.67
2019-02-11T21:50:26.716Z,6.03
2019-02-11T21:52:52.131Z,14.27
2019-02-11T21:55:21.578Z,7.53
2019-02-11T21:57:51.797Z,13.27
2019-02-11T22:00:21.814Z,10.33
2019-02-11T22:02:51.222Z,7.97
2019-02-11T22:05:20.603Z,9.60
2019-02-11T22:07:49.914Z,8.93
2019-02-11T22:10:19.254Z,7.17
2019-02-11T22:12:48.536Z,7.33
2019-02-11T22:15:18.230Z,7.73
2019-02-11T22:17:47.586Z,14.40
2019-02-11T22:20:18.266Z,11.27
2019-02-11T22:22:47.751Z,8.20
2019-02-11T22:25:17.112Z,8.87
2019-02-11T22:27:46.497Z,9.30
2019-02-11T22:30:18.639Z,6.77
2019-02-11T22:32:48.022Z,8.40
2019-02-11T22:35:17.378Z,11.73
2019-02-11T22:37:47.984Z,9.00
2019-02-11T22:40:17.274Z,9.60
2019-02-11T22:42:46.680Z,8.20
2019-02-11T22:45:18.835Z,8.33
2019-02-11T22:47:48.810Z,11.03
2019-02-11T22:50:18.222Z,10.43
2019-02-11T22:52:47.563Z,13.57
2019-02-11T22:55:16.932Z,13.50
2019-02-11T22:57:46.311Z,10.03
2019-02-11T23:00:31.539Z,14.53
2019-02-11T23:03:00.947Z,10.53
2019-02-11T23:05:30.367Z,16.67
2019-02-11T23:08:00.217Z,13.60
2019-02-11T23:10:29.573Z,11.20
2019-02-11T23:12:58.930Z,12.67
2019-02-11T23:15:28.307Z,8.97
2019-02-11T23:17:57.847Z,14.90
2019-02-11T23:20:27.332Z,12.13
2019-02-11T23:22:56.702Z,17.63
2019-02-11T23:25:26.119Z,11.80
2019-02-11T23:27:55.497Z,12.57
2019-02-11T23:30:25.015Z,12.03
2019-02-11T23:32:54.476Z,13.80
2019-02-11T23:35:23.899Z,17.20
2019-02-11T23:37:53.812Z,9.40
2019-02-11T23:40:23.172Z,8.40
2019-02-11T23:42:52.597Z,12.83
2019-02-11T23:45:22.527Z,9.20
2019-02-11T23:47:51.947Z,8.37
2019-02-11T23:50:21.388Z,7.43
2019-02-11T23:52:50.663Z,11.20
2019-02-11T23:55:19.968Z,10.17
2019-02-11T23:57:49.293Z,12.17
